FZFH weather

Mokaria-Yamoleka Airport
Mokaria-Yamoleka, Orientale Province, Congo (Kinshasa)

Public forecast

Using degrees Celsius for public forecast. Weather courtesy of forecast.io.

METAR (pilot weather report)

Report is more than 6 hours old.

Closest report is Bangoka International Airport, 157.7 nm (292.0 km) SE. Retrieved 2019/04/16 13:00 UTC (5 days ago):

FZIC 161300Z 16008KT 9000 SCT034 FEW038CB 33/23 Q1009 NOSIG

TAF (pilot weather forecast)

Forecast is more than 12 hours old.

Closest forecast is Bangoka International Airport, 157.7 nm (292.0 km) SE. Retrieved 2019/04/20 12:00 UTC (16 hours ago):

TAF FZIC 201100Z 2012/2118 12008KT 9000 SCT024 FEW036CB TEMPO 2015/2017 05008G22KT TS BECMG 2017/2019 00000KT NSC BECMG 2104/2106 05008KT BKN013 BECMG 2109/2111 SCT022